sensor_id;sensor_type;location;lat;lon;timestamp;temperature;humidity
52979;DHT22;63430;53.186;6.598;2023-03-04T00:00:04;6.10;99.90
52979;DHT22;63430;53.186;6.598;2023-03-04T00:02:11;6.10;99.90
52979;DHT22;63430;53.186;6.598;2023-03-04T00:04:14;6.10;99.90
52979;DHT22;63430;53.186;6.598;2023-03-04T00:06:16;6.10;99.90
52979;DHT22;63430;53.186;6.598;2023-03-04T00:08:21;6.10;99.90
52979;DHT22;63430;53.186;6.598;2023-03-04T00:10:24;6.10;99.90
52979;DHT22;63430;53.186;6.598;2023-03-04T00:12:26;6.10;99.90
52979;DHT22;63430;53.186;6.598;2023-03-04T00:14:29;6.10;99.90
52979;DHT22;63430;53.186;6.598;2023-03-04T00:16:31;6.10;99.90
52979;DHT22;63430;53.186;6.598;2023-03-04T00:18:36;6.10;99.90
52979;DHT22;63430;53.186;6.598;2023-03-04T00:20:39;6.10;99.90
52979;DHT22;63430;53.186;6.598;2023-03-04T00:22:42;6.10;99.90
52979;DHT22;63430;53.186;6.598;2023-03-04T00:24:51;6.20;99.90
52979;DHT22;63430;53.186;6.598;2023-03-04T00:26:53;5.80;99.90
52979;DHT22;63430;53.186;6.598;2023-03-04T00:28:56;6.20;99.90
52979;DHT22;63430;53.186;6.598;2023-03-04T00:31:01;6.10;99.90
52979;DHT22;63430;53.186;6.598;2023-03-04T00:33:04;6.10;99.90
52979;DHT22;63430;53.186;6.598;2023-03-04T00:35:07;6.10;99.90
52979;DHT22;63430;53.186;6.598;2023-03-04T00:37:09;6.10;99.90
52979;DHT22;63430;53.186;6.598;2023-03-04T00:39:12;6.10;99.90
52979;DHT22;63430;53.186;6.598;2023-03-04T00:41:17;6.10;99.90
52979;DHT22;63430;53.186;6.598;2023-03-04T00:43:20;6.10;99.90
52979;DHT22;63430;53.186;6.598;2023-03-04T00:45:22;6.30;99.90
52979;DHT22;63430;53.186;6.598;2023-03-04T00:47:26;6.10;99.90
52979;DHT22;63430;53.186;6.598;2023-03-04T00:49:28;6.10;99.90
52979;DHT22;63430;53.186;6.598;2023-03-04T00:51:31;6.20;99.90
52979;DHT22;63430;53.186;6.598;2023-03-04T00:53:34;6.10;99.90
52979;DHT22;63430;53.186;6.598;2023-03-04T00:55:37;6.20;99.90
52979;DHT22;63430;53.186;6.598;2023-03-04T00:57:42;6.20;99.90
52979;DHT22;63430;53.186;6.598;2023-03-04T00:59:44;6.20;99.90
52979;DHT22;63430;53.186;6.598;2023-03-04T01:01:47;6.20;99.90
52979;DHT22;63430;53.186;6.598;2023-03-04T01:03:51;6.20;99.90
52979;DHT22;63430;53.186;6.598;2023-03-04T01:05:53;6.20;99.90
52979;DHT22;63430;53.186;6.598;2023-03-04T01:07:56;6.20;99.90
52979;DHT22;63430;53.186;6.598;2023-03-04T01:10:01;6.20;99.90
52979;DHT22;63430;53.186;6.598;2023-03-04T01:12:03;6.20;99.90
52979;DHT22;63430;53.186;6.598;2023-03-04T01:14:09;6.10;99.90
52979;DHT22;63430;53.186;6.598;2023-03-04T01:16:31;6.20;99.90
52979;DHT22;63430;53.186;6.598;2023-03-04T01:18:34;6.20;99.90
52979;DHT22;63430;53.186;6.598;2023-03-04T01:20:36;6.10;99.90
52979;DHT22;63430;53.186;6.598;2023-03-04T01:22:52;6.10;99.90
52979;DHT22;63430;53.186;6.598;2023-03-04T01:24:54;6.10;99.90
52979;DHT22;63430;53.186;6.598;2023-03-04T01:26:57;6.10;99.90
52979;DHT22;63430;53.186;6.598;2023-03-04T01:29:03;6.10;99.90
52979;DHT22;63430;53.186;6.598;2023-03-04T01:31:08;6.10;99.90
52979;DHT22;63430;53.186;6.598;2023-03-04T01:33:10;6.10;99.90
52979;DHT22;63430;53.186;6.598;2023-03-04T01:35:13;6.00;99.90
52979;DHT22;63430;53.186;6.598;2023-03-04T01:37:15;6.00;99.90
52979;DHT22;63430;53.186;6.598;2023-03-04T01:39:18;6.90;99.90
52979;DHT22;63430;53.186;6.598;2023-03-04T01:41:24;6.00;99.90
52979;DHT22;63430;53.186;6.598;2023-03-04T01:43:28;6.00;99.90
52979;DHT22;63430;53.186;6.598;2023-03-04T01:45:31;5.90;99.90
52979;DHT22;63430;53.186;6.598;2023-03-04T01:47:37;6.00;99.90
52979;DHT22;63430;53.186;6.598;2023-03-04T01:49:40;6.00;99.90
52979;DHT22;63430;53.186;6.598;2023-03-04T01:51:47;5.90;99.90
52979;DHT22;63430;53.186;6.598;2023-03-04T01:53:50;5.90;99.90
52979;DHT22;63430;53.186;6.598;2023-03-04T01:55:56;5.90;99.90
52979;DHT22;63430;53.186;6.598;2023-03-04T01:57:59;5.80;99.90
52979;DHT22;63430;53.186;6.598;2023-03-04T02:00:18;5.90;99.90
52979;DHT22;63430;53.186;6.598;2023-03-04T02:02:21;5.90;99.90
52979;DHT22;63430;53.186;6.598;2023-03-04T02:04:28;5.80;99.90
52979;DHT22;63430;53.186;6.598;2023-03-04T02:06:32;5.80;99.90
52979;DHT22;63430;53.186;6.598;2023-03-04T02:08:37;5.80;99.90
52979;DHT22;63430;53.186;6.598;2023-03-04T02:10:41;5.80;99.90
52979;DHT22;63430;53.186;6.598;2023-03-04T02:12:44;5.70;99.90
52979;DHT22;63430;53.186;6.598;2023-03-04T02:14:47;5.70;99.90
52979;DHT22;63430;53.186;6.598;2023-03-04T02:16:49;5.70;99.90
52979;DHT22;63430;53.186;6.598;2023-03-04T02:19:04;5.70;99.90
52979;DHT22;63430;53.186;6.598;2023-03-04T02:21:16;5.70;99.90
52979;DHT22;63430;53.186;6.598;2023-03-04T02:23:31;5.70;99.90
52979;DHT22;63430;53.186;6.598;2023-03-04T02:25:38;5.70;99.90
52979;DHT22;63430;53.186;6.598;2023-03-04T02:27:46;5.70;99.90
52979;DHT22;63430;53.186;6.598;2023-03-04T02:29:49;5.70;99.90
52979;DHT22;63430;53.186;6.598;2023-03-04T02:31:53;5.70;99.90
52979;DHT22;63430;53.186;6.598;2023-03-04T02:33:56;5.70;99.90
52979;DHT22;63430;53.186;6.598;2023-03-04T02:36:00;5.80;99.90
52979;DHT22;63430;53.186;6.598;2023-03-04T02:38:03;5.80;99.90
52979;DHT22;63430;53.186;6.598;2023-03-04T02:40:09;5.80;99.90
52979;DHT22;63430;53.186;6.598;2023-03-04T02:42:15;5.80;99.90
52979;DHT22;63430;53.186;6.598;2023-03-04T02:44:22;5.80;99.90
52979;DHT22;63430;53.186;6.598;2023-03-04T02:46:26;5.80;99.90
52979;DHT22;63430;53.186;6.598;2023-03-04T02:48:32;5.80;99.90
52979;DHT22;63430;53.186;6.598;2023-03-04T02:50:38;5.80;99.90
52979;DHT22;63430;53.186;6.598;2023-03-04T02:52:42;5.80;99.90
52979;DHT22;63430;53.186;6.598;2023-03-04T02:54:53;5.80;99.90
52979;DHT22;63430;53.186;6.598;2023-03-04T02:57:00;5.80;99.90
52979;DHT22;63430;53.186;6.598;2023-03-04T02:59:03;5.80;99.90
52979;DHT22;63430;53.186;6.598;2023-03-04T03:01:08;5.80;99.90
52979;DHT22;63430;53.186;6.598;2023-03-04T03:03:16;5.80;99.90
52979;DHT22;63430;53.186;6.598;2023-03-04T03:05:19;5.80;99.90
52979;DHT22;63430;53.186;6.598;2023-03-04T03:07:27;5.80;99.90
52979;DHT22;63430;53.186;6.598;2023-03-04T03:09:30;5.80;99.90
52979;DHT22;63430;53.186;6.598;2023-03-04T03:11:33;5.80;99.90
52979;DHT22;63430;53.186;6.598;2023-03-04T03:13:35;5.80;99.90
52979;DHT22;63430;53.186;6.598;2023-03-04T03:15:38;5.80;99.90
52979;DHT22;63430;53.186;6.598;2023-03-04T03:17:47;5.80;99.90
52979;DHT22;63430;53.186;6.598;2023-03-04T03:19:53;6.00;99.90
52979;DHT22;63430;53.186;6.598;2023-03-04T03:21:56;5.80;99.90
52979;DHT22;63430;53.186;6.598;2023-03-04T03:23:59;5.80;99.90
52979;DHT22;63430;53.186;6.598;2023-03-04T03:26:01;5.80;99.90
52979;DHT22;63430;53.186;6.598;2023-03-04T03:28:04;5.80;99.90
52979;DHT22;63430;53.186;6.598;2023-03-04T03:30:14;5.80;99.90
52979;DHT22;63430;53.186;6.598;2023-03-04T03:32:17;5.80;99.90
52979;DHT22;63430;53.186;6.598;2023-03-04T03:34:22;5.80;99.90
52979;DHT22;63430;53.186;6.598;2023-03-04T03:36:25;5.80;99.90
52979;DHT22;63430;53.186;6.598;2023-03-04T03:38:27;5.80;99.90
52979;DHT22;63430;53.186;6.598;2023-03-04T03:40:30;5.80;99.90
52979;DHT22;63430;53.186;6.598;2023-03-04T03:42:33;5.80;99.90
52979;DHT22;63430;53.186;6.598;2023-03-04T03:44:35;5.80;99.90
52979;DHT22;63430;53.186;6.598;2023-03-04T03:46:41;5.80;99.90
52979;DHT22;63430;53.186;6.598;2023-03-04T03:48:43;5.80;99.90
52979;DHT22;63430;53.186;6.598;2023-03-04T03:50:48;5.80;99.90
52979;DHT22;63430;53.186;6.598;2023-03-04T03:52:55;5.80;99.90
52979;DHT22;63430;53.186;6.598;2023-03-04T03:54:58;5.80;99.90
52979;DHT22;63430;53.186;6.598;2023-03-04T03:57:03;5.80;99.90
52979;DHT22;63430;53.186;6.598;2023-03-04T03:59:06;5.80;99.90
52979;DHT22;63430;53.186;6.598;2023-03-04T04:01:08;5.80;99.90
52979;DHT22;63430;53.186;6.598;2023-03-04T04:03:15;5.80;99.90
52979;DHT22;63430;53.186;6.598;2023-03-04T04:05:18;5.80;99.90
52979;DHT22;63430;53.186;6.598;2023-03-04T04:07:23;5.80;99.90
52979;DHT22;63430;53.186;6.598;2023-03-04T04:09:25;5.80;99.90
52979;DHT22;63430;53.186;6.598;2023-03-04T04:11:28;5.80;99.90
52979;DHT22;63430;53.186;6.598;2023-03-04T04:13:30;5.80;99.90
52979;DHT22;63430;53.186;6.598;2023-03-04T04:15:35;5.80;99.90
52979;DHT22;63430;53.186;6.598;2023-03-04T04:17:40;5.80;99.90
52979;DHT22;63430;53.186;6.598;2023-03-04T04:19:46;5.90;99.90
52979;DHT22;63430;53.186;6.598;2023-03-04T04:21:48;5.80;99.90
52979;DHT22;63430;53.186;6.598;2023-03-04T04:23:53;5.80;99.90
52979;DHT22;63430;53.186;6.598;2023-03-04T04:25:56;5.80;99.90
52979;DHT22;63430;53.186;6.598;2023-03-04T04:27:59;5.80;99.90
52979;DHT22;63430;53.186;6.598;2023-03-04T04:30:02;5.80;99.90
52979;DHT22;63430;53.186;6.598;2023-03-04T04:32:05;5.80;99.90
52979;DHT22;63430;53.186;6.598;2023-03-04T04:34:08;5.80;99.90
52979;DHT22;63430;53.186;6.598;2023-03-04T04:36:12;5.80;99.90
52979;DHT22;63430;53.186;6.598;2023-03-04T04:38:16;5.80;99.90
52979;DHT22;63430;53.186;6.598;2023-03-04T04:40:22;5.90;99.90
52979;DHT22;63430;53.186;6.598;2023-03-04T04:42:25;5.90;99.90
52979;DHT22;63430;53.186;6.598;2023-03-04T04:44:28;5.80;99.90
52979;DHT22;63430;53.186;6.598;2023-03-04T04:46:30;5.90;99.90
52979;DHT22;63430;53.186;6.598;2023-03-04T04:48:33;5.90;99.90
52979;DHT22;63430;53.186;6.598;2023-03-04T04:50:35;5.90;99.90
52979;DHT22;63430;53.186;6.598;2023-03-04T04:52:38;5.90;99.90
52979;DHT22;63430;53.186;6.598;2023-03-04T04:54:42;5.90;99.90
52979;DHT22;63430;53.186;6.598;2023-03-04T04:56:47;5.80;99.90
52979;DHT22;63430;53.186;6.598;2023-03-04T04:58:49;5.80;99.90
52979;DHT22;63430;53.186;6.598;2023-03-04T05:00:55;5.80;99.90
52979;DHT22;63430;53.186;6.598;2023-03-04T05:02:58;5.80;99.90
52979;DHT22;63430;53.186;6.598;2023-03-04T05:05:00;5.80;99.90
52979;DHT22;63430;53.186;6.598;2023-03-04T05:07:03;5.70;99.90
52979;DHT22;63430;53.186;6.598;2023-03-04T05:09:05;5.70;99.90
52979;DHT22;63430;53.186;6.598;2023-03-04T05:11:14;5.70;99.90
52979;DHT22;63430;53.186;6.598;2023-03-04T05:13:20;5.80;99.90
52979;DHT22;63430;53.186;6.598;2023-03-04T05:15:22;5.80;99.90
52979;DHT22;63430;53.186;6.598;2023-03-04T05:17:25;5.80;99.90
52979;DHT22;63430;53.186;6.598;2023-03-04T05:19:28;5.80;99.90
52979;DHT22;63430;53.186;6.598;2023-03-04T05:21:32;6.60;99.90
52979;DHT22;63430;53.186;6.598;2023-03-04T05:23:36;5.90;99.90
52979;DHT22;63430;53.186;6.598;2023-03-04T05:25:39;5.80;99.90
52979;DHT22;63430;53.186;6.598;2023-03-04T05:27:41;5.80;99.90
52979;DHT22;63430;53.186;6.598;2023-03-04T05:29:46;5.90;99.90
52979;DHT22;63430;53.186;6.598;2023-03-04T05:31:49;5.80;99.90
52979;DHT22;63430;53.186;6.598;2023-03-04T05:33:52;5.90;99.90
52979;DHT22;63430;53.186;6.598;2023-03-04T05:35:54;5.90;99.90
52979;DHT22;63430;53.186;6.598;2023-03-04T05:37:57;5.80;99.90
52979;DHT22;63430;53.186;6.598;2023-03-04T05:39:59;5.90;99.90
52979;DHT22;63430;53.186;6.598;2023-03-04T05:42:02;5.80;99.90
52979;DHT22;63430;53.186;6.598;2023-03-04T05:44:05;5.80;99.90
52979;DHT22;63430;53.186;6.598;2023-03-04T05:46:12;5.80;99.90
52979;DHT22;63430;53.186;6.598;2023-03-04T05:48:16;5.80;99.90
52979;DHT22;63430;53.186;6.598;2023-03-04T05:50:20;5.80;99.90
52979;DHT22;63430;53.186;6.598;2023-03-04T05:52:23;5.80;99.90
52979;DHT22;63430;53.186;6.598;2023-03-04T05:54:25;5.80;99.90
52979;DHT22;63430;53.186;6.598;2023-03-04T05:56:29;5.80;99.90
52979;DHT22;63430;53.186;6.598;2023-03-04T05:58:33;5.80;99.90
52979;DHT22;63430;53.186;6.598;2023-03-04T06:00:36;5.80;99.90
52979;DHT22;63430;53.186;6.598;2023-03-04T06:02:44;5.80;99.90
52979;DHT22;63430;53.186;6.598;2023-03-04T06:04:47;5.80;99.90
52979;DHT22;63430;53.186;6.598;2023-03-04T06:06:49;5.70;99.90
52979;DHT22;63430;53.186;6.598;2023-03-04T06:08:51;5.80;99.90
52979;DHT22;63430;53.186;6.598;2023-03-04T06:10:55;5.70;99.90
52979;DHT22;63430;53.186;6.598;2023-03-04T06:12:58;5.70;99.90
52979;DHT22;63430;53.186;6.598;2023-03-04T06:15:01;5.70;99.90
52979;DHT22;63430;53.186;6.598;2023-03-04T06:17:04;5.80;99.90
52979;DHT22;63430;53.186;6.598;2023-03-04T06:19:09;5.80;99.90
52979;DHT22;63430;53.186;6.598;2023-03-04T06:21:11;5.80;99.90
52979;DHT22;63430;53.186;6.598;2023-03-04T06:23:14;6.30;99.90
52979;DHT22;63430;53.186;6.598;2023-03-04T06:25:17;5.80;99.90
52979;DHT22;63430;53.186;6.598;2023-03-04T06:27:19;5.80;99.90
52979;DHT22;63430;53.186;6.598;2023-03-04T06:29:22;5.90;99.90
52979;DHT22;63430;53.186;6.598;2023-03-04T06:31:30;5.70;99.90
52979;DHT22;63430;53.186;6.598;2023-03-04T06:33:34;5.80;99.90
52979;DHT22;63430;53.186;6.598;2023-03-04T06:35:39;5.80;99.90
52979;DHT22;63430;53.186;6.598;2023-03-04T06:37:41;5.80;99.90
52979;DHT22;63430;53.186;6.598;2023-03-04T06:39:44;5.70;99.90
52979;DHT22;63430;53.186;6.598;2023-03-04T06:41:56;5.80;99.90
52979;DHT22;63430;53.186;6.598;2023-03-04T06:43:59;5.80;99.90
52979;DHT22;63430;53.186;6.598;2023-03-04T06:46:02;5.80;99.90
52979;DHT22;63430;53.186;6.598;2023-03-04T06:48:05;5.80;99.90
52979;DHT22;63430;53.186;6.598;2023-03-04T06:50:09;5.80;99.90
52979;DHT22;63430;53.186;6.598;2023-03-04T06:52:15;5.80;99.90
52979;DHT22;63430;53.186;6.598;2023-03-04T06:54:18;6.30;99.90
52979;DHT22;63430;53.186;6.598;2023-03-04T06:56:21;5.80;99.90
52979;DHT22;63430;53.186;6.598;2023-03-04T06:58:24;5.80;99.90
52979;DHT22;63430;53.186;6.598;2023-03-04T07:00:28;5.80;99.90
52979;DHT22;63430;53.186;6.598;2023-03-04T07:02:31;5.80;99.90
52979;DHT22;63430;53.186;6.598;2023-03-04T07:04:33;5.80;99.90
52979;DHT22;63430;53.186;6.598;2023-03-04T07:06:40;5.90;99.90
52979;DHT22;63430;53.186;6.598;2023-03-04T07:08:46;5.90;99.90
52979;DHT22;63430;53.186;6.598;2023-03-04T07:10:49;6.10;99.90
52979;DHT22;63430;53.186;6.598;2023-03-04T07:12:51;5.90;99.90
52979;DHT22;63430;53.186;6.598;2023-03-04T07:14:53;5.90;99.90
52979;DHT22;63430;53.186;6.598;2023-03-04T07:16:57;5.90;99.90
52979;DHT22;63430;53.186;6.598;2023-03-04T07:18:59;6.20;99.90
52979;DHT22;63430;53.186;6.598;2023-03-04T07:21:02;6.10;99.90
52979;DHT22;63430;53.186;6.598;2023-03-04T07:23:05;6.10;99.90
52979;DHT22;63430;53.186;6.598;2023-03-04T07:25:12;6.00;99.90
52979;DHT22;63430;53.186;6.598;2023-03-04T07:27:14;6.00;99.90
52979;DHT22;63430;53.186;6.598;2023-03-04T07:29:19;6.00;99.90
52979;DHT22;63430;53.186;6.598;2023-03-04T07:31:23;6.00;99.90
52979;DHT22;63430;53.186;6.598;2023-03-04T07:33:26;6.00;99.90
52979;DHT22;63430;53.186;6.598;2023-03-04T07:35:28;6.00;99.90
52979;DHT22;63430;53.186;6.598;2023-03-04T07:37:31;6.00;99.90
52979;DHT22;63430;53.186;6.598;2023-03-04T07:39:34;6.00;99.90
52979;DHT22;63430;53.186;6.598;2023-03-04T07:41:39;6.10;99.90
52979;DHT22;63430;53.186;6.598;2023-03-04T07:43:43;6.00;99.90
52979;DHT22;63430;53.186;6.598;2023-03-04T07:45:45;6.00;99.90
52979;DHT22;63430;53.186;6.598;2023-03-04T07:47:48;6.00;99.90
52979;DHT22;63430;53.186;6.598;2023-03-04T07:49:51;6.10;99.90
52979;DHT22;63430;53.186;6.598;2023-03-04T07:51:54;6.10;99.90
52979;DHT22;63430;53.186;6.598;2023-03-04T07:53:59;6.10;99.90
52979;DHT22;63430;53.186;6.598;2023-03-04T07:56:09;6.10;99.90
52979;DHT22;63430;53.186;6.598;2023-03-04T07:58:15;6.10;99.90
52979;DHT22;63430;53.186;6.598;2023-03-04T08:00:22;6.10;99.90
52979;DHT22;63430;53.186;6.598;2023-03-04T08:02:25;6.10;99.90
52979;DHT22;63430;53.186;6.598;2023-03-04T08:04:27;6.10;99.90
52979;DHT22;63430;53.186;6.598;2023-03-04T08:06:30;6.10;99.90
52979;DHT22;63430;53.186;6.598;2023-03-04T08:08:33;6.00;99.90
52979;DHT22;63430;53.186;6.598;2023-03-04T08:10:36;5.90;99.90
52979;DHT22;63430;53.186;6.598;2023-03-04T08:12:40;5.90;99.90
52979;DHT22;63430;53.186;6.598;2023-03-04T08:14:46;5.90;99.90
52979;DHT22;63430;53.186;6.598;2023-03-04T08:16:48;6.20;99.90
52979;DHT22;63430;53.186;6.598;2023-03-04T08:18:52;5.90;99.90
52979;DHT22;63430;53.186;6.598;2023-03-04T08:20:55;6.00;99.90
52979;DHT22;63430;53.186;6.598;2023-03-04T08:22:58;6.00;99.90
52979;DHT22;63430;53.186;6.598;2023-03-04T08:25:00;6.00;99.90
52979;DHT22;63430;53.186;6.598;2023-03-04T08:27:05;6.00;99.90
52979;DHT22;63430;53.186;6.598;2023-03-04T08:29:08;6.00;99.90
52979;DHT22;63430;53.186;6.598;2023-03-04T08:31:16;6.10;99.90
52979;DHT22;63430;53.186;6.598;2023-03-04T08:33:20;6.10;99.90
52979;DHT22;63430;53.186;6.598;2023-03-04T08:35:22;6.10;99.90
52979;DHT22;63430;53.186;6.598;2023-03-04T08:37:25;6.60;99.90
52979;DHT22;63430;53.186;6.598;2023-03-04T08:39:27;5.70;99.90
52979;DHT22;63430;53.186;6.598;2023-03-04T08:41:31;6.10;99.90
52979;DHT22;63430;53.186;6.598;2023-03-04T08:43:38;6.10;99.90
52979;DHT22;63430;53.186;6.598;2023-03-04T08:45:41;6.20;99.90
52979;DHT22;63430;53.186;6.598;2023-03-04T08:47:46;6.20;99.90
52979;DHT22;63430;53.186;6.598;2023-03-04T08:49:48;6.20;99.90
52979;DHT22;63430;53.186;6.598;2023-03-04T08:51:51;6.20;99.90
52979;DHT22;63430;53.186;6.598;2023-03-04T08:53:54;6.20;99.90
52979;DHT22;63430;53.186;6.598;2023-03-04T08:55:56;6.20;99.90
52979;DHT22;63430;53.186;6.598;2023-03-04T08:57:59;7.10;99.90
52979;DHT22;63430;53.186;6.598;2023-03-04T09:00:05;6.30;99.90
52979;DHT22;63430;53.186;6.598;2023-03-04T09:02:08;6.30;99.90
52979;DHT22;63430;53.186;6.598;2023-03-04T09:04:14;6.30;99.90
52979;DHT22;63430;53.186;6.598;2023-03-04T09:06:17;6.30;99.90
52979;DHT22;63430;53.186;6.598;2023-03-04T09:08:25;6.40;99.90
52979;DHT22;63430;53.186;6.598;2023-03-04T09:10:28;6.40;99.90
52979;DHT22;63430;53.186;6.598;2023-03-04T09:12:30;6.40;99.90
52979;DHT22;63430;53.186;6.598;2023-03-04T09:14:33;6.40;99.90
52979;DHT22;63430;53.186;6.598;2023-03-04T09:16:37;6.50;99.90
52979;DHT22;63430;53.186;6.598;2023-03-04T09:18:44;6.50;99.90
52979;DHT22;63430;53.186;6.598;2023-03-04T09:20:49;6.50;99.90
52979;DHT22;63430;53.186;6.598;2023-03-04T09:22:51;6.50;99.90
52979;DHT22;63430;53.186;6.598;2023-03-04T09:24:54;6.50;99.90
52979;DHT22;63430;53.186;6.598;2023-03-04T09:26:58;6.90;99.90
52979;DHT22;63430;53.186;6.598;2023-03-04T09:29:01;6.50;99.90
52979;DHT22;63430;53.186;6.598;2023-03-04T09:31:10;6.80;99.90
52979;DHT22;63430;53.186;6.598;2023-03-04T09:33:19;5.50;99.90
52979;DHT22;63430;53.186;6.598;2023-03-04T09:35:21;6.40;99.90
52979;DHT22;63430;53.186;6.598;2023-03-04T09:37:27;6.60;99.90
52979;DHT22;63430;53.186;6.598;2023-03-04T09:39:29;6.40;99.90
52979;DHT22;63430;53.186;6.598;2023-03-04T09:41:36;6.40;99.90
52979;DHT22;63430;53.186;6.598;2023-03-04T09:43:40;6.40;99.90
52979;DHT22;63430;53.186;6.598;2023-03-04T09:45:47;6.50;99.90
52979;DHT22;63430;53.186;6.598;2023-03-04T09:47:52;6.50;99.90
52979;DHT22;63430;53.186;6.598;2023-03-04T09:49:57;6.60;99.90
52979;DHT22;63430;53.186;6.598;2023-03-04T09:52:04;6.60;99.90
52979;DHT22;63430;53.186;6.598;2023-03-04T09:54:16;6.60;99.90
52979;DHT22;63430;53.186;6.598;2023-03-04T09:56:21;6.70;99.90
52979;DHT22;63430;53.186;6.598;2023-03-04T09:58:37;6.80;99.90
52979;DHT22;63430;53.186;6.598;2023-03-04T10:00:42;6.90;99.90
52979;DHT22;63430;53.186;6.598;2023-03-04T10:03:00;7.00;99.90
52979;DHT22;63430;53.186;6.598;2023-03-04T10:05:07;7.00;99.90
52979;DHT22;63430;53.186;6.598;2023-03-04T10:07:16;7.00;99.90
52979;DHT22;63430;53.186;6.598;2023-03-04T10:09:26;7.00;99.90
52979;DHT22;63430;53.186;6.598;2023-03-04T10:11:34;6.90;99.90
52979;DHT22;63430;53.186;6.598;2023-03-04T10:13:45;6.80;99.90
52979;DHT22;63430;53.186;6.598;2023-03-04T10:15:51;6.70;99.90
52979;DHT22;63430;53.186;6.598;2023-03-04T10:18:12;6.60;99.90
52979;DHT22;63430;53.186;6.598;2023-03-04T10:20:18;6.50;99.90
52979;DHT22;63430;53.186;6.598;2023-03-04T10:22:28;6.60;99.90
52979;DHT22;63430;53.186;6.598;2023-03-04T10:24:34;6.60;99.90
52979;DHT22;63430;53.186;6.598;2023-03-04T10:26:37;6.60;99.90
52979;DHT22;63430;53.186;6.598;2023-03-04T10:28:44;6.70;99.90
52979;DHT22;63430;53.186;6.598;2023-03-04T10:30:50;6.70;99.90
52979;DHT22;63430;53.186;6.598;2023-03-04T10:32:54;6.80;99.90
52979;DHT22;63430;53.186;6.598;2023-03-04T10:34:56;6.80;99.90
52979;DHT22;63430;53.186;6.598;2023-03-04T10:37:01;6.80;99.90
52979;DHT22;63430;53.186;6.598;2023-03-04T10:39:08;6.80;99.90
52979;DHT22;63430;53.186;6.598;2023-03-04T10:41:21;6.80;99.90
52979;DHT22;63430;53.186;6.598;2023-03-04T10:43:24;6.80;99.90
52979;DHT22;63430;53.186;6.598;2023-03-04T10:45:30;6.90;99.90
52979;DHT22;63430;53.186;6.598;2023-03-04T10:47:36;6.80;99.90
52979;DHT22;63430;53.186;6.598;2023-03-04T10:49:49;6.80;99.90
52979;DHT22;63430;53.186;6.598;2023-03-04T10:52:03;6.80;99.90
52979;DHT22;63430;53.186;6.598;2023-03-04T10:54:26;6.90;99.90
52979;DHT22;63430;53.186;6.598;2023-03-04T10:56:37;6.90;99.90
52979;DHT22;63430;53.186;6.598;2023-03-04T10:58:40;7.00;99.90
52979;DHT22;63430;53.186;6.598;2023-03-04T11:00:42;7.00;99.90
52979;DHT22;63430;53.186;6.598;2023-03-04T11:02:46;7.00;99.90
52979;DHT22;63430;53.186;6.598;2023-03-04T11:04:51;7.00;99.90
52979;DHT22;63430;53.186;6.598;2023-03-04T11:06:54;7.00;99.90
52979;DHT22;63430;53.186;6.598;2023-03-04T11:08:58;7.00;99.90
52979;DHT22;63430;53.186;6.598;2023-03-04T11:11:09;6.90;99.90
52979;DHT22;63430;53.186;6.598;2023-03-04T11:13:25;6.80;99.90
52979;DHT22;63430;53.186;6.598;2023-03-04T11:15:29;6.80;99.90
52979;DHT22;63430;53.186;6.598;2023-03-04T11:17:42;6.80;99.90
52979;DHT22;63430;53.186;6.598;2023-03-04T11:19:50;6.80;99.90
52979;DHT22;63430;53.186;6.598;2023-03-04T11:21:54;6.80;99.90
52979;DHT22;63430;53.186;6.598;2023-03-04T11:24:00;6.80;99.90
52979;DHT22;63430;53.186;6.598;2023-03-04T11:26:09;6.90;99.90
52979;DHT22;63430;53.186;6.598;2023-03-04T11:28:19;7.00;99.90
52979;DHT22;63430;53.186;6.598;2023-03-04T11:30:33;7.10;99.90
52979;DHT22;63430;53.186;6.598;2023-03-04T11:32:40;7.20;99.90
52979;DHT22;63430;53.186;6.598;2023-03-04T11:34:49;7.30;99.90
52979;DHT22;63430;53.186;6.598;2023-03-04T11:36:56;7.30;99.90
52979;DHT22;63430;53.186;6.598;2023-03-04T11:39:04;7.20;99.90
52979;DHT22;63430;53.186;6.598;2023-03-04T11:41:13;7.10;99.90
52979;DHT22;63430;53.186;6.598;2023-03-04T11:43:22;7.10;99.90
52979;DHT22;63430;53.186;6.598;2023-03-04T11:45:35;7.00;99.90
52979;DHT22;63430;53.186;6.598;2023-03-04T11:47:49;7.20;99.90
52979;DHT22;63430;53.186;6.598;2023-03-04T11:50:28;6.90;99.90
52979;DHT22;63430;53.186;6.598;2023-03-04T11:52:47;6.90;99.90
52979;DHT22;63430;53.186;6.598;2023-03-04T11:55:20;6.90;99.90
52979;DHT22;63430;53.186;6.598;2023-03-04T11:57:30;7.10;99.90
52979;DHT22;63430;53.186;6.598;2023-03-04T11:59:55;7.30;99.90
52979;DHT22;63430;53.186;6.598;2023-03-04T12:02:11;7.40;99.90
52979;DHT22;63430;53.186;6.598;2023-03-04T12:04:37;7.40;99.90
52979;DHT22;63430;53.186;6.598;2023-03-04T12:07:21;7.40;99.90
52979;DHT22;63430;53.186;6.598;2023-03-04T12:09:44;7.50;99.90
52979;DHT22;63430;53.186;6.598;2023-03-04T12:11:59;7.60;99.90
52979;DHT22;63430;53.186;6.598;2023-03-04T12:14:14;7.60;99.90
52979;DHT22;63430;53.186;6.598;2023-03-04T12:16:29;7.60;99.90
52979;DHT22;63430;53.186;6.598;2023-03-04T12:18:39;7.60;99.90
52979;DHT22;63430;53.186;6.598;2023-03-04T12:21:00;8.40;99.90
52979;DHT22;63430;53.186;6.598;2023-03-04T12:23:15;7.50;99.90
52979;DHT22;63430;53.186;6.598;2023-03-04T12:25:41;7.40;99.90
52979;DHT22;63430;53.186;6.598;2023-03-04T12:27:50;7.40;99.90
52979;DHT22;63430;53.186;6.598;2023-03-04T12:29:57;7.40;99.90
52979;DHT22;63430;53.186;6.598;2023-03-04T12:32:08;7.30;99.90
52979;DHT22;63430;53.186;6.598;2023-03-04T12:34:41;7.30;99.90
52979;DHT22;63430;53.186;6.598;2023-03-04T12:36:50;7.30;99.90
52979;DHT22;63430;53.186;6.598;2023-03-04T12:38:59;7.50;99.90
52979;DHT22;63430;53.186;6.598;2023-03-04T12:41:12;7.60;99.90
52979;DHT22;63430;53.186;6.598;2023-03-04T12:43:35;7.50;99.90
52979;DHT22;63430;53.186;6.598;2023-03-04T12:45:49;7.30;99.90
52979;DHT22;63430;53.186;6.598;2023-03-04T12:48:01;7.20;99.90
52979;DHT22;63430;53.186;6.598;2023-03-04T12:50:24;7.20;99.90
52979;DHT22;63430;53.186;6.598;2023-03-04T12:52:38;7.20;99.90
52979;DHT22;63430;53.186;6.598;2023-03-04T12:54:46;7.30;99.90
52979;DHT22;63430;53.186;6.598;2023-03-04T12:56:53;7.80;99.90
52979;DHT22;63430;53.186;6.598;2023-03-04T12:58:58;7.50;99.90
52979;DHT22;63430;53.186;6.598;2023-03-04T13:01:07;7.30;99.90
52979;DHT22;63430;53.186;6.598;2023-03-04T13:03:20;7.00;99.90
52979;DHT22;63430;53.186;6.598;2023-03-04T13:05:50;6.80;99.90
52979;DHT22;63430;53.186;6.598;2023-03-04T13:08:00;6.70;99.90
52979;DHT22;63430;53.186;6.598;2023-03-04T13:10:07;6.70;99.90
52979;DHT22;63430;53.186;6.598;2023-03-04T13:12:14;6.70;99.90
52979;DHT22;63430;53.186;6.598;2023-03-04T13:14:26;6.70;99.90
52979;DHT22;63430;53.186;6.598;2023-03-04T13:16:31;6.80;99.90
52979;DHT22;63430;53.186;6.598;2023-03-04T13:18:35;6.80;99.90
52979;DHT22;63430;53.186;6.598;2023-03-04T13:20:42;6.70;99.90
52979;DHT22;63430;53.186;6.598;2023-03-04T13:22:47;6.80;99.90
52979;DHT22;63430;53.186;6.598;2023-03-04T13:24:53;7.00;99.90
52979;DHT22;63430;53.186;6.598;2023-03-04T13:26:57;6.90;99.90